sensor_id;sensor_type;location;lat;lon;timestamp;temperature;humidity
74792;SHT30;63319;46.046;17.802;2023-05-07T00:00:33;24.69;45.21
74792;SHT30;63319;46.046;17.802;2023-05-07T00:03:36;24.68;45.00
74792;SHT30;63319;46.046;17.802;2023-05-07T00:06:40;24.65;45.03
74792;SHT30;63319;46.046;17.802;2023-05-07T00:09:43;24.67;45.05
74792;SHT30;63319;46.046;17.802;2023-05-07T00:12:46;24.67;44.87
74792;SHT30;63319;46.046;17.802;2023-05-07T00:15:49;24.65;45.16
74792;SHT30;63319;46.046;17.802;2023-05-07T00:18:52;24.64;45.28
74792;SHT30;63319;46.046;17.802;2023-05-07T00:21:56;24.64;45.30
74792;SHT30;63319;46.046;17.802;2023-05-07T00:24:59;24.62;45.30
74792;SHT30;63319;46.046;17.802;2023-05-07T00:28:02;24.61;45.14
74792;SHT30;63319;46.046;17.802;2023-05-07T00:31:06;24.62;45.26
74792;SHT30;63319;46.046;17.802;2023-05-07T00:34:09;24.62;45.37
74792;SHT30;63319;46.046;17.802;2023-05-07T00:37:13;24.62;45.09
74792;SHT30;63319;46.046;17.802;2023-05-07T00:40:16;24.58;45.17
74792;SHT30;63319;46.046;17.802;2023-05-07T00:43:19;24.60;45.25
74792;SHT30;63319;46.046;17.802;2023-05-07T00:46:22;24.60;45.12
74792;SHT30;63319;46.046;17.802;2023-05-07T00:49:35;24.57;45.11
74792;SHT30;63319;46.046;17.802;2023-05-07T00:52:40;24.58;45.22
74792;SHT30;63319;46.046;17.802;2023-05-07T00:55:44;24.58;45.15
74792;SHT30;63319;46.046;17.802;2023-05-07T00:58:47;24.57;45.23
74792;SHT30;63319;46.046;17.802;2023-05-07T01:01:51;24.57;45.37
74792;SHT30;63319;46.046;17.802;2023-05-07T01:04:55;24.55;45.38
74792;SHT30;63319;46.046;17.802;2023-05-07T01:07:59;24.55;45.33
74792;SHT30;63319;46.046;17.802;2023-05-07T01:11:07;24.54;45.43
74792;SHT30;63319;46.046;17.802;2023-05-07T01:14:10;24.55;45.40
74792;SHT30;63319;46.046;17.802;2023-05-07T01:17:13;24.54;45.20
74792;SHT30;63319;46.046;17.802;2023-05-07T01:20:17;24.54;45.17
74792;SHT30;63319;46.046;17.802;2023-05-07T01:23:22;24.54;45.15
74792;SHT30;63319;46.046;17.802;2023-05-07T01:26:25;24.54;45.32
74792;SHT30;63319;46.046;17.802;2023-05-07T01:29:29;24.52;45.16
74792;SHT30;63319;46.046;17.802;2023-05-07T01:32:37;24.52;45.30
74792;SHT30;63319;46.046;17.802;2023-05-07T01:35:42;24.54;45.37
74792;SHT30;63319;46.046;17.802;2023-05-07T01:38:46;24.54;45.40
74792;SHT30;63319;46.046;17.802;2023-05-07T01:41:50;24.50;45.42
74792;SHT30;63319;46.046;17.802;2023-05-07T01:44:53;24.51;45.41
74792;SHT30;63319;46.046;17.802;2023-05-07T01:47:56;24.50;45.22
74792;SHT30;63319;46.046;17.802;2023-05-07T01:51:00;24.50;45.22
74792;SHT30;63319;46.046;17.802;2023-05-07T01:54:04;24.51;45.29
74792;SHT30;63319;46.046;17.802;2023-05-07T01:57:07;24.51;45.26
74792;SHT30;63319;46.046;17.802;2023-05-07T02:00:11;24.50;45.42
74792;SHT30;63319;46.046;17.802;2023-05-07T02:03:17;24.48;45.34
74792;SHT30;63319;46.046;17.802;2023-05-07T02:06:28;24.47;45.31
74792;SHT30;63319;46.046;17.802;2023-05-07T02:09:37;24.47;45.07
74792;SHT30;63319;46.046;17.802;2023-05-07T02:12:40;24.50;45.33
74792;SHT30;63319;46.046;17.802;2023-05-07T02:15:43;24.50;45.18
74792;SHT30;63319;46.046;17.802;2023-05-07T02:18:49;24.47;45.05
74792;SHT30;63319;46.046;17.802;2023-05-07T02:21:52;24.47;45.28
74792;SHT30;63319;46.046;17.802;2023-05-07T02:24:55;24.48;44.96
74792;SHT30;63319;46.046;17.802;2023-05-07T02:27:58;24.47;44.93
74792;SHT30;63319;46.046;17.802;2023-05-07T02:31:19;24.48;44.83
74792;SHT30;63319;46.046;17.802;2023-05-07T02:34:22;24.47;44.52
74792;SHT30;63319;46.046;17.802;2023-05-07T02:37:26;24.48;44.51
74792;SHT30;63319;46.046;17.802;2023-05-07T02:40:29;24.47;44.94
74792;SHT30;63319;46.046;17.802;2023-05-07T02:43:32;24.45;44.99
74792;SHT30;63319;46.046;17.802;2023-05-07T02:46:35;24.44;45.06
74792;SHT30;63319;46.046;17.802;2023-05-07T02:49:43;24.44;44.99
74792;SHT30;63319;46.046;17.802;2023-05-07T02:52:45;24.47;44.76
74792;SHT30;63319;46.046;17.802;2023-05-07T02:55:50;24.43;44.88
74792;SHT30;63319;46.046;17.802;2023-05-07T02:58:52;24.45;44.87
74792;SHT30;63319;46.046;17.802;2023-05-07T03:01:58;24.45;45.01
74792;SHT30;63319;46.046;17.802;2023-05-07T03:05:01;24.44;44.99
74792;SHT30;63319;46.046;17.802;2023-05-07T03:08:04;24.43;45.05
74792;SHT30;63319;46.046;17.802;2023-05-07T03:11:08;24.44;45.03
74792;SHT30;63319;46.046;17.802;2023-05-07T03:14:11;24.44;45.10
74792;SHT30;63319;46.046;17.802;2023-05-07T03:17:14;24.43;45.04
74792;SHT30;63319;46.046;17.802;2023-05-07T03:20:18;24.43;45.27
74792;SHT30;63319;46.046;17.802;2023-05-07T03:23:21;24.40;45.26
74792;SHT30;63319;46.046;17.802;2023-05-07T03:26:26;24.43;45.11
74792;SHT30;63319;46.046;17.802;2023-05-07T03:29:29;24.41;45.15
74792;SHT30;63319;46.046;17.802;2023-05-07T03:32:32;24.41;45.40
74792;SHT30;63319;46.046;17.802;2023-05-07T03:35:35;24.43;44.91
74792;SHT30;63319;46.046;17.802;2023-05-07T03:38:38;24.40;45.05
74792;SHT30;63319;46.046;17.802;2023-05-07T03:41:41;24.40;44.93
74792;SHT30;63319;46.046;17.802;2023-05-07T03:44:44;24.41;44.94
74792;SHT30;63319;46.046;17.802;2023-05-07T03:47:47;24.41;45.04
74792;SHT30;63319;46.046;17.802;2023-05-07T03:50:53;24.40;45.23
74792;SHT30;63319;46.046;17.802;2023-05-07T03:53:56;24.41;45.02
74792;SHT30;63319;46.046;17.802;2023-05-07T03:57:01;24.41;45.18
74792;SHT30;63319;46.046;17.802;2023-05-07T04:00:05;24.41;45.33
74792;SHT30;63319;46.046;17.802;2023-05-07T04:03:22;24.41;45.30
74792;SHT30;63319;46.046;17.802;2023-05-07T04:06:25;24.40;45.31
74792;SHT30;63319;46.046;17.802;2023-05-07T04:09:28;24.40;45.39
74792;SHT30;63319;46.046;17.802;2023-05-07T04:12:33;24.37;45.14
74792;SHT30;63319;46.046;17.802;2023-05-07T04:15:48;24.41;45.27
74792;SHT30;63319;46.046;17.802;2023-05-07T04:18:53;24.40;45.17
74792;SHT30;63319;46.046;17.802;2023-05-07T04:21:56;24.38;45.17
74792;SHT30;63319;46.046;17.802;2023-05-07T04:25:00;24.41;45.23
74792;SHT30;63319;46.046;17.802;2023-05-07T04:28:03;24.40;45.25
74792;SHT30;63319;46.046;17.802;2023-05-07T04:31:07;24.38;45.13
74792;SHT30;63319;46.046;17.802;2023-05-07T04:34:12;24.41;45.23
74792;SHT30;63319;46.046;17.802;2023-05-07T04:37:16;24.43;45.12
74792;SHT30;63319;46.046;17.802;2023-05-07T04:40:19;24.43;45.16
74792;SHT30;63319;46.046;17.802;2023-05-07T04:43:22;24.41;44.94
74792;SHT30;63319;46.046;17.802;2023-05-07T04:46:26;24.44;44.79
74792;SHT30;63319;46.046;17.802;2023-05-07T04:49:32;24.43;45.02
74792;SHT30;63319;46.046;17.802;2023-05-07T04:52:35;24.44;45.04
74792;SHT30;63319;46.046;17.802;2023-05-07T04:55:38;24.41;45.01
74792;SHT30;63319;46.046;17.802;2023-05-07T04:58:41;24.44;45.07
74792;SHT30;63319;46.046;17.802;2023-05-07T05:01:45;24.44;45.10
74792;SHT30;63319;46.046;17.802;2023-05-07T05:04:48;24.43;45.07
74792;SHT30;63319;46.046;17.802;2023-05-07T05:07:52;24.44;45.32
74792;SHT30;63319;46.046;17.802;2023-05-07T05:10:56;24.45;45.32
74792;SHT30;63319;46.046;17.802;2023-05-07T05:13:59;24.47;45.09
74792;SHT30;63319;46.046;17.802;2023-05-07T05:17:03;24.47;45.37
74792;SHT30;63319;46.046;17.802;2023-05-07T05:20:06;24.50;45.00
74792;SHT30;63319;46.046;17.802;2023-05-07T05:23:10;24.48;45.15
74792;SHT30;63319;46.046;17.802;2023-05-07T05:26:13;24.50;45.05
74792;SHT30;63319;46.046;17.802;2023-05-07T05:29:16;24.50;44.94
74792;SHT30;63319;46.046;17.802;2023-05-07T05:32:20;24.50;44.90
74792;SHT30;63319;46.046;17.802;2023-05-07T05:35:24;24.51;45.05
74792;SHT30;63319;46.046;17.802;2023-05-07T05:38:27;24.52;45.19
74792;SHT30;63319;46.046;17.802;2023-05-07T05:41:30;24.54;45.15
74792;SHT30;63319;46.046;17.802;2023-05-07T05:44:34;24.57;44.95
74792;SHT30;63319;46.046;17.802;2023-05-07T05:47:37;24.61;44.83
74792;SHT30;63319;46.046;17.802;2023-05-07T05:50:42;24.62;44.66
74792;SHT30;63319;46.046;17.802;2023-05-07T05:53:45;24.65;44.49
74792;SHT30;63319;46.046;17.802;2023-05-07T05:56:48;24.68;44.75
74792;SHT30;63319;46.046;17.802;2023-05-07T05:59:51;24.72;44.65
74792;SHT30;63319;46.046;17.802;2023-05-07T06:02:54;24.72;44.37
74792;SHT30;63319;46.046;17.802;2023-05-07T06:05:59;24.79;43.95
74792;SHT30;63319;46.046;17.802;2023-05-07T06:09:06;24.81;44.09
74792;SHT30;63319;46.046;17.802;2023-05-07T06:12:13;24.85;43.82
74792;SHT30;63319;46.046;17.802;2023-05-07T06:15:16;24.89;43.81
74792;SHT30;63319;46.046;17.802;2023-05-07T06:18:20;24.93;44.26
74792;SHT30;63319;46.046;17.802;2023-05-07T06:21:23;25.05;44.30
74792;SHT30;63319;46.046;17.802;2023-05-07T06:24:26;25.12;44.24
74792;SHT30;63319;46.046;17.802;2023-05-07T06:27:29;25.12;43.95
74792;SHT30;63319;46.046;17.802;2023-05-07T06:30:33;25.15;44.08
74792;SHT30;63319;46.046;17.802;2023-05-07T06:33:36;25.16;43.94
74792;SHT30;63319;46.046;17.802;2023-05-07T06:36:40;25.19;44.05
74792;SHT30;63319;46.046;17.802;2023-05-07T06:39:52;25.30;44.06
74792;SHT30;63319;46.046;17.802;2023-05-07T06:42:55;25.31;43.95
74792;SHT30;63319;46.046;17.802;2023-05-07T06:46:08;25.34;43.82
74792;SHT30;63319;46.046;17.802;2023-05-07T06:49:13;25.40;43.74
74792;SHT30;63319;46.046;17.802;2023-05-07T06:52:16;25.46;43.61
74792;SHT30;63319;46.046;17.802;2023-05-07T06:55:20;25.54;43.53
74792;SHT30;63319;46.046;17.802;2023-05-07T06:58:24;25.60;43.18
74792;SHT30;63319;46.046;17.802;2023-05-07T07:01:28;25.58;43.39
74792;SHT30;63319;46.046;17.802;2023-05-07T07:04:31;25.66;43.26
74792;SHT30;63319;46.046;17.802;2023-05-07T07:07:38;25.68;43.31
74792;SHT30;63319;46.046;17.802;2023-05-07T07:10:42;25.74;43.14
74792;SHT30;63319;46.046;17.802;2023-05-07T07:13:45;25.74;43.22
74792;SHT30;63319;46.046;17.802;2023-05-07T07:16:48;25.73;43.11
74792;SHT30;63319;46.046;17.802;2023-05-07T07:19:52;25.75;43.21
74792;SHT30;63319;46.046;17.802;2023-05-07T07:22:55;25.74;43.24
74792;SHT30;63319;46.046;17.802;2023-05-07T07:25:58;25.75;43.20
74792;SHT30;63319;46.046;17.802;2023-05-07T07:29:02;25.77;43.15
74792;SHT30;63319;46.046;17.802;2023-05-07T07:32:05;25.82;43.06
74792;SHT30;63319;46.046;17.802;2023-05-07T07:35:08;25.92;42.94
74792;SHT30;63319;46.046;17.802;2023-05-07T07:38:13;25.98;42.74
74792;SHT30;63319;46.046;17.802;2023-05-07T07:41:16;26.04;42.58
74792;SHT30;63319;46.046;17.802;2023-05-07T07:44:19;26.06;42.62
74792;SHT30;63319;46.046;17.802;2023-05-07T07:47:27;26.08;42.51
74792;SHT30;63319;46.046;17.802;2023-05-07T07:50:31;26.12;42.51
74792;SHT30;63319;46.046;17.802;2023-05-07T07:53:47;26.15;42.47
74792;SHT30;63319;46.046;17.802;2023-05-07T07:56:50;26.18;42.44
74792;SHT30;63319;46.046;17.802;2023-05-07T07:59:53;26.24;42.24
74792;SHT30;63319;46.046;17.802;2023-05-07T08:02:56;26.25;42.24
74792;SHT30;63319;46.046;17.802;2023-05-07T08:06:04;26.32;42.14
74792;SHT30;63319;46.046;17.802;2023-05-07T08:09:10;26.35;42.08
74792;SHT30;63319;46.046;17.802;2023-05-07T08:12:15;26.37;41.99
74792;SHT30;63319;46.046;17.802;2023-05-07T08:15:19;26.39;41.93
74792;SHT30;63319;46.046;17.802;2023-05-07T08:18:22;26.44;41.85
74792;SHT30;63319;46.046;17.802;2023-05-07T08:21:28;26.70;41.38
74792;SHT30;63319;46.046;17.802;2023-05-07T08:24:37;26.73;41.35
74792;SHT30;63319;46.046;17.802;2023-05-07T08:27:39;27.00;40.91
74792;SHT30;63319;46.046;17.802;2023-05-07T08:30:43;27.27;40.28
74792;SHT30;63319;46.046;17.802;2023-05-07T08:33:46;27.56;39.80
74792;SHT30;63319;46.046;17.802;2023-05-07T08:36:49;27.89;39.18
74792;SHT30;63319;46.046;17.802;2023-05-07T08:39:55;27.80;39.34
74792;SHT30;63319;46.046;17.802;2023-05-07T08:43:03;28.01;38.93
74792;SHT30;63319;46.046;17.802;2023-05-07T08:46:09;28.11;38.81
74792;SHT30;63319;46.046;17.802;2023-05-07T08:49:17;28.21;38.64
74792;SHT30;63319;46.046;17.802;2023-05-07T08:52:21;28.17;38.70
74792;SHT30;63319;46.046;17.802;2023-05-07T08:55:24;28.10;38.85
74792;SHT30;63319;46.046;17.802;2023-05-07T08:58:47;28.18;38.71
74792;SHT30;63319;46.046;17.802;2023-05-07T09:01:50;28.38;38.44
74792;SHT30;63319;46.046;17.802;2023-05-07T09:04:54;28.58;38.02
74792;SHT30;63319;46.046;17.802;2023-05-07T09:08:06;28.51;38.09
74792;SHT30;63319;46.046;17.802;2023-05-07T09:11:09;28.54;38.18
74792;SHT30;63319;46.046;17.802;2023-05-07T09:14:13;28.44;38.34
74792;SHT30;63319;46.046;17.802;2023-05-07T09:17:18;28.43;38.40
74792;SHT30;63319;46.046;17.802;2023-05-07T09:20:21;28.65;37.91
74792;SHT30;63319;46.046;17.802;2023-05-07T09:23:24;28.80;37.80
74792;SHT30;63319;46.046;17.802;2023-05-07T09:26:45;29.00;37.46
74792;SHT30;63319;46.046;17.802;2023-05-07T09:29:50;29.07;37.28
74792;SHT30;63319;46.046;17.802;2023-05-07T09:32:53;29.34;36.80
74792;SHT30;63319;46.046;17.802;2023-05-07T09:35:57;29.65;36.34
74792;SHT30;63319;46.046;17.802;2023-05-07T09:39:00;29.85;36.01
74792;SHT30;63319;46.046;17.802;2023-05-07T09:42:04;29.86;35.98
74792;SHT30;63319;46.046;17.802;2023-05-07T09:45:10;29.95;35.85
74792;SHT30;63319;46.046;17.802;2023-05-07T09:48:18;29.95;35.92
74792;SHT30;63319;46.046;17.802;2023-05-07T09:51:34;30.12;35.65
74792;SHT30;63319;46.046;17.802;2023-05-07T09:54:40;30.09;35.67
74792;SHT30;63319;46.046;17.802;2023-05-07T09:57:46;30.05;35.83
74792;SHT30;63319;46.046;17.802;2023-05-07T10:00:50;30.12;35.66
74792;SHT30;63319;46.046;17.802;2023-05-07T10:03:54;30.18;35.59
74792;SHT30;63319;46.046;17.802;2023-05-07T10:06:59;30.20;35.55
74792;SHT30;63319;46.046;17.802;2023-05-07T10:10:03;30.32;35.40
74792;SHT30;63319;46.046;17.802;2023-05-07T10:13:12;30.35;35.32
74792;SHT30;63319;46.046;17.802;2023-05-07T10:16:21;30.43;35.25
74792;SHT30;63319;46.046;17.802;2023-05-07T10:19:25;30.37;35.36
74792;SHT30;63319;46.046;17.802;2023-05-07T10:22:51;30.32;35.49
74792;SHT30;63319;46.046;17.802;2023-05-07T10:26:06;30.16;35.68
74792;SHT30;63319;46.046;17.802;2023-05-07T10:29:31;29.84;36.28
74792;SHT30;63319;46.046;17.802;2023-05-07T10:32:43;29.91;36.20
74792;SHT30;63319;46.046;17.802;2023-05-07T10:35:59;30.09;35.92
74792;SHT30;63319;46.046;17.802;2023-05-07T10:39:06;30.09;35.81
74792;SHT30;63319;46.046;17.802;2023-05-07T10:42:11;30.08;35.79
74792;SHT30;63319;46.046;17.802;2023-05-07T10:45:19;30.26;35.60
74792;SHT30;63319;46.046;17.802;2023-05-07T10:48:29;30.29;35.59
74792;SHT30;63319;46.046;17.802;2023-05-07T10:51:38;30.10;35.84
74792;SHT30;63319;46.046;17.802;2023-05-07T10:58:31;29.81;36.36
74792;SHT30;63319;46.046;17.802;2023-05-07T11:02:14;29.84;36.37
74792;SHT30;63319;46.046;17.802;2023-05-07T11:05:32;30.02;36.11
74792;SHT30;63319;46.046;17.802;2023-05-07T11:08:58;30.08;35.92
74792;SHT30;63319;46.046;17.802;2023-05-07T11:12:14;29.93;36.23
74792;SHT30;63319;46.046;17.802;2023-05-07T11:15:35;29.70;36.63
74792;SHT30;63319;46.046;17.802;2023-05-07T11:18:52;29.81;36.48
74792;SHT30;63319;46.046;17.802;2023-05-07T11:26:05;29.79;36.40
74792;SHT30;63319;46.046;17.802;2023-05-07T11:29:19;29.89;36.35
74792;SHT30;63319;46.046;17.802;2023-05-07T11:32:30;29.81;36.47
74792;SHT30;63319;46.046;17.802;2023-05-07T11:35:34;29.75;36.47
74792;SHT30;63319;46.046;17.802;2023-05-07T11:38:41;29.78;36.48
74792;SHT30;63319;46.046;17.802;2023-05-07T11:41:44;29.77;36.52
74792;SHT30;63319;46.046;17.802;2023-05-07T11:44:47;29.65;36.71
74792;SHT30;63319;46.046;17.802;2023-05-07T11:47:51;29.62;36.75
74792;SHT30;63319;46.046;17.802;2023-05-07T11:51:03;29.54;36.92
74792;SHT30;63319;46.046;17.802;2023-05-07T11:54:08;29.49;36.98
74792;SHT30;63319;46.046;17.802;2023-05-07T11:57:14;29.50;36.96
74792;SHT30;63319;46.046;17.802;2023-05-07T12:00:17;29.44;37.10
74792;SHT30;63319;46.046;17.802;2023-05-07T12:03:21;29.34;37.26
74792;SHT30;63319;46.046;17.802;2023-05-07T12:06:24;29.30;37.32
74792;SHT30;63319;46.046;17.802;2023-05-07T12:09:27;29.19;37.51
74792;SHT30;63319;46.046;17.802;2023-05-07T12:12:30;29.14;37.64
74792;SHT30;63319;46.046;17.802;2023-05-07T12:15:35;29.07;37.66
74792;SHT30;63319;46.046;17.802;2023-05-07T12:18:38;29.02;37.83
74792;SHT30;63319;46.046;17.802;2023-05-07T12:21:41;28.91;38.01
74792;SHT30;63319;46.046;17.802;2023-05-07T12:24:46;28.91;38.02
74792;SHT30;63319;46.046;17.802;2023-05-07T12:27:53;28.75;38.33
74792;SHT30;63319;46.046;17.802;2023-05-07T12:30:56;28.72;38.39
74792;SHT30;63319;46.046;17.802;2023-05-07T12:34:00;28.65;38.50
74792;SHT30;63319;46.046;17.802;2023-05-07T12:37:02;28.59;38.55
74792;SHT30;63319;46.046;17.802;2023-05-07T12:40:08;28.58;38.71
74792;SHT30;63319;46.046;17.802;2023-05-07T12:43:25;28.55;38.66
74792;SHT30;63319;46.046;17.802;2023-05-07T12:46:27;28.54;38.76
74792;SHT30;63319;46.046;17.802;2023-05-07T12:49:30;28.54;38.72
74792;SHT30;63319;46.046;17.802;2023-05-07T12:52:34;28.43;38.93
74792;SHT30;63319;46.046;17.802;2023-05-07T12:55:45;28.47;38.92
74792;SHT30;63319;46.046;17.802;2023-05-07T12:58:48;28.34;39.11
74792;SHT30;63319;46.046;17.802;2023-05-07T13:01:53;28.48;38.96
74792;SHT30;63319;46.046;17.802;2023-05-07T13:04:56;28.35;39.07
74792;SHT30;63319;46.046;17.802;2023-05-07T13:07:58;28.28;39.19
74792;SHT30;63319;46.046;17.802;2023-05-07T13:11:04;28.25;39.26
74792;SHT30;63319;46.046;17.802;2023-05-07T13:14:07;28.27;39.23
74792;SHT30;63319;46.046;17.802;2023-05-07T13:17:10;28.25;39.25
74792;SHT30;63319;46.046;17.802;2023-05-07T13:20:13;28.20;39.35
74792;SHT30;63319;46.046;17.802;2023-05-07T13:23:16;28.17;39.44
74792;SHT30;63319;46.046;17.802;2023-05-07T13:26:19;28.11;39.49
74792;SHT30;63319;46.046;17.802;2023-05-07T13:29:28;28.07;39.65
74792;SHT30;63319;46.046;17.802;2023-05-07T13:32:32;28.06;39.59
74792;SHT30;63319;46.046;17.802;2023-05-07T13:35:35;28.10;39.52
74792;SHT30;63319;46.046;17.802;2023-05-07T13:38:41;28.00;39.72
74792;SHT30;63319;46.046;17.802;2023-05-07T13:41:44;28.03;39.65
74792;SHT30;63319;46.046;17.802;2023-05-07T13:44:46;27.96;39.81
74792;SHT30;63319;46.046;17.802;2023-05-07T13:47:49;27.94;39.84
74792;SHT30;63319;46.046;17.802;2023-05-07T13:50:53;27.92;39.83
74792;SHT30;63319;46.046;17.802;2023-05-07T13:53:55;27.94;39.81
74792;SHT30;63319;46.046;17.802;2023-05-07T13:57:04;27.89;39.87
74792;SHT30;63319;46.046;17.802;2023-05-07T14:00:07;27.85;40.01
74792;SHT30;63319;46.046;17.802;2023-05-07T14:03:16;27.77;40.15
74792;SHT30;63319;46.046;17.802;2023-05-07T14:06:20;27.74;40.12
74792;SHT30;63319;46.046;17.802;2023-05-07T14:09:23;27.76;40.19
74792;SHT30;63319;46.046;17.802;2023-05-07T14:12:26;27.74;40.22
74792;SHT30;63319;46.046;17.802;2023-05-07T14:15:29;27.71;40.24
74792;SHT30;63319;46.046;17.802;2023-05-07T14:18:32;27.67;40.31
74792;SHT30;63319;46.046;17.802;2023-05-07T14:21:36;27.63;40.45
74792;SHT30;63319;46.046;17.802;2023-05-07T14:24:39;27.65;40.40
74792;SHT30;63319;46.046;17.802;2023-05-07T14:27:42;27.65;40.31
74792;SHT30;63319;46.046;17.802;2023-05-07T14:30:45;27.62;40.42
74792;SHT30;63319;46.046;17.802;2023-05-07T14:33:50;27.62;40.47
74792;SHT30;63319;46.046;17.802;2023-05-07T14:36:53;27.53;40.59
74792;SHT30;63319;46.046;17.802;2023-05-07T14:39:56;27.50;40.62
74792;SHT30;63319;46.046;17.802;2023-05-07T14:42:59;27.50;40.67
74792;SHT30;63319;46.046;17.802;2023-05-07T14:46:02;27.45;40.74
74792;SHT30;63319;46.046;17.802;2023-05-07T14:49:06;27.43;40.81
74792;SHT30;63319;46.046;17.802;2023-05-07T14:52:09;27.41;40.87
74792;SHT30;63319;46.046;17.802;2023-05-07T14:55:12;27.35;40.95
74792;SHT30;63319;46.046;17.802;2023-05-07T14:58:15;27.32;40.99
74792;SHT30;63319;46.046;17.802;2023-05-07T15:01:20;27.32;41.06
74792;SHT30;63319;46.046;17.802;2023-05-07T15:04:23;27.25;41.16
74792;SHT30;63319;46.046;17.802;2023-05-07T15:07:26;27.25;41.14
74792;SHT30;63319;46.046;17.802;2023-05-07T15:10:29;27.22;41.24
74792;SHT30;63319;46.046;17.802;2023-05-07T15:13:32;27.18;41.28
74792;SHT30;63319;46.046;17.802;2023-05-07T15:16:35;27.15;41.37
74792;SHT30;63319;46.046;17.802;2023-05-07T15:19:38;27.12;41.39
74792;SHT30;63319;46.046;17.802;2023-05-07T15:22:41;27.11;41.48
74792;SHT30;63319;46.046;17.802;2023-05-07T15:25:44;27.10;41.52
74792;SHT30;63319;46.046;17.802;2023-05-07T15:28:49;27.02;41.58
74792;SHT30;63319;46.046;17.802;2023-05-07T15:31:53;27.02;41.60
74792;SHT30;63319;46.046;17.802;2023-05-07T15:34:56;27.02;41.63
74792;SHT30;63319;46.046;17.802;2023-05-07T15:37:59;26.95;41.72
74792;SHT30;63319;46.046;17.802;2023-05-07T15:41:09;26.98;41.72
74792;SHT30;63319;46.046;17.802;2023-05-07T15:44:12;26.95;41.78
74792;SHT30;63319;46.046;17.802;2023-05-07T15:47:15;26.93;41.82
74792;SHT30;63319;46.046;17.802;2023-05-07T15:50:18;26.88;41.92
74792;SHT30;63319;46.046;17.802;2023-05-07T15:53:20;26.88;41.87
74792;SHT30;63319;46.046;17.802;2023-05-07T15:56:23;26.86;41.97
74792;SHT30;63319;46.046;17.802;2023-05-07T15:59:26;26.80;42.03
74792;SHT30;63319;46.046;17.802;2023-05-07T16:02:29;26.81;42.02
74792;SHT30;63319;46.046;17.802;2023-05-07T16:05:32;26.77;42.11
74792;SHT30;63319;46.046;17.802;2023-05-07T16:08:35;26.80;42.09
74792;SHT30;63319;46.046;17.802;2023-05-07T16:11:37;26.72;42.19
74792;SHT30;63319;46.046;17.802;2023-05-07T16:14:40;26.74;42.20
74792;SHT30;63319;46.046;17.802;2023-05-07T16:17:45;26.73;42.25
74792;SHT30;63319;46.046;17.802;2023-05-07T16:20:49;26.70;42.30
74792;SHT30;63319;46.046;17.802;2023-05-07T16:23:52;26.65;42.37
74792;SHT30;63319;46.046;17.802;2023-05-07T16:26:55;26.64;42.38
74792;SHT30;63319;46.046;17.802;2023-05-07T16:29:57;26.63;42.40
74792;SHT30;63319;46.046;17.802;2023-05-07T16:33:00;26.61;42.42
74792;SHT30;63319;46.046;17.802;2023-05-07T16:36:03;26.60;42.48
74792;SHT30;63319;46.046;17.802;2023-05-07T16:39:06;26.59;42.55
74792;SHT30;63319;46.046;17.802;2023-05-07T16:42:09;26.54;42.51
74792;SHT30;63319;46.046;17.802;2023-05-07T16:45:12;26.54;42.57
74792;SHT30;63319;46.046;17.802;2023-05-07T16:48:15;26.56;42.62
74792;SHT30;63319;46.046;17.802;2023-05-07T16:51:20;26.53;42.66
74792;SHT30;63319;46.046;17.802;2023-05-07T16:54:26;26.52;42.65
74792;SHT30;63319;46.046;17.802;2023-05-07T16:57:29;26.49;42.73
74792;SHT30;63319;46.046;17.802;2023-05-07T17:00:32;26.47;42.73
74792;SHT30;63319;46.046;17.802;2023-05-07T17:03:51;26.50;42.72
74792;SHT30;63319;46.046;17.802;2023-05-07T17:06:55;26.46;42.76
74792;SHT30;63319;46.046;17.802;2023-05-07T17:10:01;26.46;42.73
74792;SHT30;63319;46.046;17.802;2023-05-07T17:13:04;26.42;42.77
74792;SHT30;63319;46.046;17.802;2023-05-07T17:16:08;26.42;42.78
74792;SHT30;63319;46.046;17.802;2023-05-07T17:19:11;26.42;42.81
74792;SHT30;63319;46.046;17.802;2023-05-07T17:22:14;26.39;42.87
74792;SHT30;63319;46.046;17.802;2023-05-07T17:25:17;26.39;42.95
74792;SHT30;63319;46.046;17.802;2023-05-07T17:28:28;26.36;42.92
74792;SHT30;63319;46.046;17.802;2023-05-07T17:31:31;26.36;42.90
74792;SHT30;63319;46.046;17.802;2023-05-07T17:34:34;26.33;43.00
74792;SHT30;63319;46.046;17.802;2023-05-07T17:37:37;26.32;43.06
74792;SHT30;63319;46.046;17.802;2023-05-07T17:40:40;26.28;43.09
74792;SHT30;63319;46.046;17.802;2023-05-07T17:43:43;26.28;43.10
74792;SHT30;63319;46.046;17.802;2023-05-07T17:46:46;26.28;43.14
74792;SHT30;63319;46.046;17.802;2023-05-07T17:49:48;26.24;43.15
74792;SHT30;63319;46.046;17.802;2023-05-07T17:52:51;26.25;43.17
74792;SHT30;63319;46.046;17.802;2023-05-07T17:55:57;26.21;43.22
74792;SHT30;63319;46.046;17.802;2023-05-07T17:59:00;26.22;43.25
74792;SHT30;63319;46.046;17.802;2023-05-07T18:02:03;26.19;43.28
74792;SHT30;63319;46.046;17.802;2023-05-07T18:05:07;26.18;43.33
74792;SHT30;63319;46.046;17.802;2023-05-07T18:08:11;26.16;43.35
74792;SHT30;63319;46.046;17.802;2023-05-07T18:11:13;26.12;43.37
74792;SHT30;63319;46.046;17.802;2023-05-07T18:14:16;26.09;43.44
74792;SHT30;63319;46.046;17.802;2023-05-07T18:17:19;26.11;43.46
74792;SHT30;63319;46.046;17.802;2023-05-07T18:20:25;26.06;43.47
74792;SHT30;63319;46.046;17.802;2023-05-07T18:23:29;26.05;43.49
74792;SHT30;63319;46.046;17.802;2023-05-07T18:26:33;26.04;43.54
74792;SHT30;63319;46.046;17.802;2023-05-07T18:29:35;26.01;43.58
74792;SHT30;63319;46.046;17.802;2023-05-07T18:32:38;26.02;43.60
74792;SHT30;63319;46.046;17.802;2023-05-07T18:35:44;26.01;43.69
74792;SHT30;63319;46.046;17.802;2023-05-07T18:38:47;25.99;43.65
74792;SHT30;63319;46.046;17.802;2023-05-07T18:41:51;25.98;43.70
74792;SHT30;63319;46.046;17.802;2023-05-07T18:44:55;25.94;43.75
74792;SHT30;63319;46.046;17.802;2023-05-07T18:47:59;25.95;43.76
74792;SHT30;63319;46.046;17.802;2023-05-07T18:51:03;25.92;43.80
74792;SHT30;63319;46.046;17.802;2023-05-07T18:54:07;25.91;43.87
74792;SHT30;63319;46.046;17.802;2023-05-07T18:57:10;25.91;43.84
74792;SHT30;63319;46.046;17.802;2023-05-07T19:00:14;25.91;43.84
74792;SHT30;63319;46.046;17.802;2023-05-07T19:03:17;25.85;43.89
74792;SHT30;63319;46.046;17.802;2023-05-07T19:06:20;25.85;43.92
74792;SHT30;63319;46.046;17.802;2023-05-07T19:09:23;25.81;43.96
74792;SHT30;63319;46.046;17.802;2023-05-07T19:12:27;25.82;43.95
74792;SHT30;63319;46.046;17.802;2023-05-07T19:15:40;25.82;44.01